Time;durP1;ratioP1;P1;durP2;ratioP2;P2;SDS_P1;SDS_P2;PMS_P1;PMS_P2;Temp;Humidity;BMP_temperature;BMP_pressure;BME280_temperature;BME280_humidity;BME280_pressure;Samples;Min_cycle;Max_cycle;Signal;HPM_P1;HPM_P2
2022/03/08 00:01:38;;;;;;;4.22;1.70;;;;;;;-1.47;48.48;102651.22;4982862;28;20031;-77
2022/03/08 00:04:04;;;;;;;1.65;0.70;;;;;;;-1.48;48.82;102643.47;4949662;28;20051;-79
2022/03/08 00:06:30;;;;;;;2.95;1.55;;;;;;;-1.37;48.90;102642.19;4966554;28;20290;-79
2022/03/08 00:08:57;;;;;;;4.25;1.60;;;;;;;-1.41;49.18;102642.91;4987836;28;20043;-77
2022/03/08 00:11:22;;;;;;;2.88;1.30;;;;;;;-1.42;48.52;102638.56;4982663;28;20520;-78
2022/03/08 00:13:50;;;;;;;3.63;1.75;;;;;;;-1.37;48.35;102639.63;4969033;28;20053;-77
2022/03/08 00:16:16;;;;;;;2.28;1.65;;;;;;;-1.32;48.49;102642.38;4985959;28;20073;-76
2022/03/08 00:18:44;;;;;;;2.47;1.05;;;;;;;-1.18;48.25;102634.34;5018466;28;20399;-78
2022/03/08 00:21:11;;;;;;;3.15;1.50;;;;;;;-1.20;47.81;102624.84;5014858;28;20035;-75
2022/03/08 00:23:36;;;;;;;1.63;1.35;;;;;;;-1.22;47.90;102623.91;5005734;28;20050;-78
2022/03/08 00:26:02;;;;;;;3.63;1.05;;;;;;;-1.24;47.57;102618.75;4991668;28;20039;-78
2022/03/08 00:28:28;;;;;;;4.93;1.45;;;;;;;-1.33;47.59;102617.53;4987806;28;20039;-80
2022/03/08 00:30:55;;;;;;;2.92;1.15;;;;;;;-1.46;47.83;102629.91;4998765;28;20034;-78
2022/03/08 00:33:20;;;;;;;6.57;1.70;;;;;;;-1.47;47.73;102628.13;4972680;28;20482;-78
2022/03/08 00:35:46;;;;;;;5.82;1.77;;;;;;;-1.55;48.06;102623.53;4970307;28;20038;-78
2022/03/08 00:38:12;;;;;;;2.08;1.40;;;;;;;-1.63;48.80;102620.69;4991270;28;20046;-78
2022/03/08 00:40:38;;;;;;;2.50;1.33;;;;;;;-1.45;48.42;102628.19;4989935;28;20042;-78
2022/03/08 00:43:04;;;;;;;2.25;1.17;;;;;;;-1.48;49.03;102622.97;4958317;28;20046;-78
2022/03/08 00:45:30;;;;;;;2.60;1.20;;;;;;;-1.33;48.17;102612.38;4987221;28;20038;-78
2022/03/08 00:47:56;;;;;;;2.55;1.25;;;;;;;-1.44;48.02;102615.44;4957647;28;20714;-78
2022/03/08 00:50:24;;;;;;;2.95;1.40;;;;;;;-1.52;47.89;102621.09;4976472;28;20041;-78
2022/03/08 00:52:51;;;;;;;4.40;1.70;;;;;;;-1.61;48.01;102614.78;4998240;28;20035;-78
2022/03/08 00:55:19;;;;;;;2.17;0.93;;;;;;;-1.62;47.99;102619.84;4983969;28;20438;-78
2022/03/08 00:57:45;;;;;;;2.92;1.00;;;;;;;-1.66;47.98;102616.31;4966198;28;20035;-79
2022/03/08 01:00:14;;;;;;;2.53;1.30;;;;;;;-1.71;48.05;102606.69;4984551;28;20042;-80
2022/03/08 01:02:40;;;;;;;3.63;1.20;;;;;;;-1.81;48.03;102608.03;4989652;28;20445;-78
2022/03/08 01:05:06;;;;;;;2.83;1.48;;;;;;;-1.81;48.38;102608.88;4977114;28;20086;-78
2022/03/08 01:07:32;;;;;;;4.10;1.30;;;;;;;-1.86;48.56;102610.41;4973897;28;20427;-78
2022/03/08 01:09:57;;;;;;;4.75;1.67;;;;;;;-1.93;48.89;102602.41;4974719;28;20123;-79
2022/03/08 01:12:24;;;;;;;6.95;1.40;;;;;;;-1.91;49.23;102606.78;4967883;28;20164;-79
2022/03/08 01:14:50;;;;;;;4.60;2.08;;;;;;;-1.82;49.58;102602.03;4969217;28;20090;-77
2022/03/08 01:17:16;;;;;;;2.90;1.67;;;;;;;-1.76;49.77;102609.06;4985383;28;20516;-78
2022/03/08 01:19:41;;;;;;;2.53;1.63;;;;;;;-1.60;49.09;102601.16;4991630;28;20023;-78
2022/03/08 01:22:07;;;;;;;2.10;1.38;;;;;;;-1.59;48.41;102605.47;4977627;28;20056;-78
2022/03/08 01:24:32;;;;;;;3.53;1.73;;;;;;;-1.59;48.25;102604.59;4968692;28;20046;-76
2022/03/08 01:26:58;;;;;;;2.72;1.02;;;;;;;-1.52;48.47;102598.00;4998264;28;20068;-78
2022/03/08 01:29:23;;;;;;;3.08;1.92;;;;;;;-1.54;48.35;102597.06;4969793;28;20074;-77
2022/03/08 01:31:51;;;;;;;4.03;1.55;;;;;;;-1.45;48.34;102594.84;4971352;28;20129;-78
2022/03/08 01:34:17;;;;;;;2.25;1.45;;;;;;;-1.45;47.69;102599.97;4999591;28;20050;-78
2022/03/08 01:36:43;;;;;;;3.20;1.48;;;;;;;-1.52;47.36;102600.56;4971772;28;20042;-80
2022/03/08 01:39:09;;;;;;;2.63;1.40;;;;;;;-1.59;47.99;102604.59;4981860;28;20128;-77
2022/03/08 01:41:35;;;;;;;1.77;1.40;;;;;;;-1.59;47.80;102609.72;4960792;28;20125;-78
2022/03/08 01:44:00;;;;;;;4.70;1.70;;;;;;;-1.55;47.48;102601.34;4973670;28;20181;-79
2022/03/08 01:46:26;;;;;;;4.57;1.13;;;;;;;-1.71;47.87;102593.84;4974606;28;20603;-79
2022/03/08 01:48:52;;;;;;;2.38;1.30;;;;;;;-1.61;48.12;102590.84;4989869;28;20038;-78
2022/03/08 01:51:20;;;;;;;2.50;1.67;;;;;;;-1.65;47.57;102589.84;4972165;28;20344;-79
2022/03/08 01:53:46;;;;;;;6.40;1.65;;;;;;;-1.73;47.94;102590.34;4985960;28;20038;-78
2022/03/08 01:56:12;;;;;;;3.78;1.60;;;;;;;-1.70;47.93;102581.09;4999652;28;20308;-78
2022/03/08 01:58:38;;;;;;;3.90;1.80;;;;;;;-1.69;48.10;102575.16;4980693;28;20105;-78
2022/03/08 02:01:06;;;;;;;3.17;1.67;;;;;;;-1.69;48.09;102581.97;4957748;28;20038;-78
2022/03/08 02:03:32;;;;;;;4.38;2.28;;;;;;;-1.69;47.95;102580.28;4989606;28;20043;-79
2022/03/08 02:05:58;;;;;;;6.22;2.00;;;;;;;-1.70;47.92;102570.84;4993962;28;20303;-79
2022/03/08 02:08:25;;;;;;;4.13;1.60;;;;;;;-1.59;47.97;102563.56;4992182;28;20053;-77
2022/03/08 02:10:51;;;;;;;3.53;2.47;;;;;;;-1.63;47.58;102562.56;4988839;28;20044;-78
2022/03/08 02:13:17;;;;;;;3.55;1.85;;;;;;;-1.63;47.78;102561.69;4988685;28;20073;-79
2022/03/08 02:15:48;;;;;;;4.55;1.73;;;;;;;-1.70;47.19;102565.72;4983716;28;20488;-78
2022/03/08 02:18:13;;;;;;;2.58;1.48;;;;;;;-1.61;47.70;102565.19;4965817;28;20548;-79
2022/03/08 02:20:39;;;;;;;4.53;1.80;;;;;;;-1.68;47.99;102560.66;4988121;28;20030;-79
2022/03/08 02:23:04;;;;;;;2.25;1.40;;;;;;;-1.56;47.45;102552.56;4976454;28;20134;-77
2022/03/08 02:25:29;;;;;;;3.40;1.83;;;;;;;-1.57;47.91;102559.38;4969212;28;20502;-78
2022/03/08 02:27:55;;;;;;;2.95;1.60;;;;;;;-1.61;47.27;102552.38;4969332;28;20590;-78
2022/03/08 02:30:23;;;;;;;5.32;1.25;;;;;;;-1.55;47.05;102554.28;4966946;28;20315;-79
2022/03/08 02:32:49;;;;;;;3.72;1.50;;;;;;;-1.52;47.19;102549.28;4990436;28;20125;-78
2022/03/08 02:35:20;;;;;;;2.85;2.17;;;;;;;-1.57;46.95;102551.69;4986588;28;20069;-79
2022/03/08 02:37:55;;;;;;;1.65;1.10;;;;;;;-1.63;47.08;102554.00;5011054;28;20039;-79
2022/03/08 02:40:23;;;;;;;4.32;1.88;;;;;;;-1.67;47.58;102550.44;5002268;28;20061;-79
2022/03/08 02:42:50;;;;;;;4.22;1.58;;;;;;;-1.65;47.40;102551.38;5002075;28;20513;-79
2022/03/08 02:45:17;;;;;;;3.80;1.80;;;;;;;-1.63;47.69;102541.19;4983058;28;20042;-79
2022/03/08 02:47:43;;;;;;;3.60;1.95;;;;;;;-1.59;47.26;102543.06;4996020;28;20052;-78
2022/03/08 02:50:11;;;;;;;2.72;1.63;;;;;;;-1.63;47.40;102543.75;4969113;28;20031;-77
2022/03/08 02:52:38;;;;;;;3.22;1.95;;;;;;;-1.63;47.86;102543.75;4964377;28;20042;-79
2022/03/08 02:55:04;;;;;;;2.10;1.52;;;;;;;-1.68;47.69;102545.28;4993244;28;20381;-79
2022/03/08 02:57:29;;;;;;;3.22;1.75;;;;;;;-1.72;47.66;102535.72;4974574;28;20499;-78
2022/03/08 02:59:55;;;;;;;8.57;2.33;;;;;;;-1.73;48.23;102534.84;4959797;28;20062;-77
2022/03/08 03:02:20;;;;;;;4.15;2.05;;;;;;;-1.73;48.34;102531.41;4982945;28;20061;-79
2022/03/08 03:04:46;;;;;;;3.00;1.90;;;;;;;-1.82;48.20;102525.13;4984918;28;20117;-78
2022/03/08 03:07:14;;;;;;;2.22;1.88;;;;;;;-1.76;48.52;102529.59;4986958;28;20089;-79
2022/03/08 03:09:39;;;;;;;2.60;1.52;;;;;;;-1.76;48.55;102531.28;4981511;28;20455;-78
2022/03/08 03:12:05;;;;;;;3.72;2.25;;;;;;;-1.74;48.59;102521.97;4972693;28;20390;-79
2022/03/08 03:14:31;;;;;;;3.50;1.33;;;;;;;-1.69;48.33;102523.00;4987400;28;20551;-78
2022/03/08 03:16:56;;;;;;;2.47;1.67;;;;;;;-1.74;48.25;102527.09;4975315;28;20034;-79
2022/03/08 03:19:22;;;;;;;3.15;1.48;;;;;;;-1.78;48.26;102517.53;4998963;28;20150;-79
2022/03/08 03:21:47;;;;;;;2.55;1.58;;;;;;;-1.78;48.57;102525.22;4992316;28;20035;-79
2022/03/08 03:24:13;;;;;;;2.97;1.50;;;;;;;-1.80;48.09;102522.59;4974900;28;20066;-78
2022/03/08 03:26:38;;;;;;;3.33;1.90;;;;;;;-1.87;48.31;102520.63;4985528;28;20506;-79
2022/03/08 03:29:04;;;;;;;2.70;1.33;;;;;;;-1.89;48.73;102530.84;4977554;28;20039;-79
2022/03/08 03:31:29;;;;;;;3.95;1.45;;;;;;;-1.90;48.34;102529.06;4990174;28;20038;-79
2022/03/08 03:33:55;;;;;;;3.47;1.90;;;;;;;-1.88;48.31;102530.00;4976360;28;20507;-80
2022/03/08 03:36:20;;;;;;;2.35;1.52;;;;;;;-1.93;48.62;102525.50;4969642;28;20050;-78
2022/03/08 03:38:46;;;;;;;2.00;1.45;;;;;;;-1.86;48.42;102522.38;4991469;28;20042;-78
2022/03/08 03:41:11;;;;;;;2.63;1.65;;;;;;;-1.87;48.17;102525.75;4977103;28;20026;-77
2022/03/08 03:43:37;;;;;;;3.50;1.73;;;;;;;-1.91;48.15;102524.78;4986623;28;20042;-79
2022/03/08 03:46:05;;;;;;;2.05;1.77;;;;;;;-1.97;48.37;102527.09;4974022;28;20488;-79
2022/03/08 03:48:30;;;;;;;3.13;1.58;;;;;;;-1.98;48.17;102522.78;4975912;28;20042;-79
2022/03/08 03:50:55;;;;;;;2.80;1.83;;;;;;;-2.04;48.23;102528.56;5005284;28;20506;-78
2022/03/08 03:53:21;;;;;;;3.47;1.75;;;;;;;-2.06;48.46;102525.06;4969727;28;20153;-79
2022/03/08 03:55:46;;;;;;;5.47;1.90;;;;;;;-2.05;48.37;102516.53;4960191;28;20035;-79
2022/03/08 03:58:12;;;;;;;5.18;3.20;;;;;;;-2.05;48.01;102518.22;4987943;28;20260;-79
2022/03/08 04:00:37;;;;;;;3.15;1.50;;;;;;;-2.06;48.13;102519.94;4981154;28;20026;-80
2022/03/08 04:03:03;;;;;;;2.83;2.03;;;;;;;-2.15;48.39;102518.72;4988561;28;20042;-79
2022/03/08 04:05:29;;;;;;;5.05;1.73;;;;;;;-2.18;48.28;102513.44;4954434;28;20699;-79
2022/03/08 04:07:54;;;;;;;5.68;1.80;;;;;;;-2.14;47.80;102515.31;4973327;28;20124;-80
2022/03/08 04:10:20;;;;;;;6.82;1.90;;;;;;;-2.17;47.90;102515.22;4977052;28;20042;-78
2022/03/08 04:12:45;;;;;;;3.17;1.55;;;;;;;-2.24;47.97;102514.09;4977690;28;20405;-79
2022/03/08 04:15:11;;;;;;;3.03;1.67;;;;;;;-2.29;47.79;102516.47;4988283;28;20038;-77
2022/03/08 04:17:37;;;;;;;2.38;1.45;;;;;;;-2.31;47.39;102517.19;4978077;28;20047;-79
2022/03/08 04:20:07;;;;;;;2.80;1.67;;;;;;;-2.32;47.55;102516.34;4991108;28;20042;-78
2022/03/08 04:22:32;;;;;;;3.17;1.80;;;;;;;-2.19;47.17;102515.13;4985077;28;20149;-78
2022/03/08 04:24:58;;;;;;;3.50;1.88;;;;;;;-2.40;47.75;102516.84;4981041;28;20042;-78
2022/03/08 04:27:23;;;;;;;3.65;1.85;;;;;;;-2.48;48.02;102525.09;4968050;28;20584;-78
2022/03/08 04:29:49;;;;;;;4.13;1.58;;;;;;;-2.44;47.98;102526.97;4991262;28;20034;-79
2022/03/08 04:32:15;;;;;;;2.33;1.70;;;;;;;-2.39;47.48;102519.47;4975494;28;20065;-77
2022/03/08 04:34:41;;;;;;;2.95;1.50;;;;;;;-2.41;47.72;102521.09;4982437;28;20023;-78
2022/03/08 04:37:07;;;;;;;2.13;1.92;;;;;;;-2.39;47.51;102519.47;4989895;28;20058;-78
2022/03/08 04:39:34;;;;;;;2.75;1.77;;;;;;;-2.47;47.62;102526.84;4988631;28;20483;-77
2022/03/08 04:42:00;;;;;;;2.83;1.92;;;;;;;-2.67;48.02;102527.69;4970526;28;20617;-78
2022/03/08 04:44:25;;;;;;;3.85;2.50;;;;;;;-2.69;48.64;102525.09;4990915;28;20035;-79
2022/03/08 04:46:51;;;;;;;3.05;1.92;;;;;;;-2.75;48.48;102524.84;4968176;28;20094;-76
2022/03/08 04:49:16;;;;;;;5.88;2.50;;;;;;;-2.76;48.69;102527.31;4990682;28;20082;-79
2022/03/08 04:51:41;;;;;;;3.22;2.17;;;;;;;-2.82;48.66;102527.97;4974304;28;20026;-79
2022/03/08 04:54:07;;;;;;;5.03;2.00;;;;;;;-2.80;48.72;102525.44;4986179;28;20038;-79
2022/03/08 04:56:32;;;;;;;3.65;2.05;;;;;;;-2.76;48.15;102528.22;4985210;28;20027;-81
2022/03/08 04:58:58;;;;;;;3.10;2.08;;;;;;;-2.85;48.91;102530.38;5001138;28;20381;-80
2022/03/08 05:01:24;;;;;;;3.95;2.42;;;;;;;-2.79;48.52;102537.44;5004115;28;20206;-80
2022/03/08 05:03:49;;;;;;;4.28;2.55;;;;;;;-2.87;48.61;102530.31;4999690;28;20050;-79
2022/03/08 05:06:16;;;;;;;4.40;2.35;;;;;;;-2.89;49.10;102533.63;4993354;28;20046;-78
2022/03/08 05:08:42;;;;;;;3.65;2.47;;;;;;;-2.92;49.07;102542.03;4955240;28;20125;-78
2022/03/08 05:11:07;;;;;;;5.18;2.67;;;;;;;-2.93;49.77;102541.97;4970202;28;20054;-80
2022/03/08 05:13:33;;;;;;;8.40;3.33;;;;;;;-2.82;49.31;102537.31;4972978;28;20034;-78
2022/03/08 05:15:58;;;;;;;4.60;2.80;;;;;;;-2.85;49.14;102543.16;4992988;28;20135;-78
2022/03/08 05:18:24;;;;;;;4.10;3.50;;;;;;;-2.81;49.26;102539.94;4988062;28;20133;-80
2022/03/08 05:20:49;;;;;;;5.07;3.03;;;;;;;-2.78;49.18;102549.41;4981473;28;20070;-80
2022/03/08 05:23:15;;;;;;;7.40;2.90;;;;;;;-2.78;49.14;102549.41;4997672;28;20137;-79
2022/03/08 05:25:41;;;;;;;8.77;3.60;;;;;;;-2.69;49.31;102549.84;4974689;28;20258;-77
2022/03/08 05:28:08;;;;;;;3.25;2.33;;;;;;;-2.72;49.16;102550.53;4966143;28;20049;-79
2022/03/08 05:30:34;;;;;;;12.73;4.57;;;;;;;-2.71;49.04;102557.44;4988598;28;20030;-79
2022/03/08 05:33:00;;;;;;;5.13;2.70;;;;;;;-2.68;48.81;102556.69;4971502;28;20050;-79
2022/03/08 05:35:25;;;;;;;5.10;3.03;;;;;;;-2.69;48.96;102558.38;4997946;28;20039;-78
2022/03/08 05:37:51;;;;;;;10.35;3.30;;;;;;;-2.61;48.86;102547.56;4998996;28;20085;-80
2022/03/08 05:40:16;;;;;;;5.80;3.35;;;;;;;-2.54;48.75;102549.56;4987778;28;20496;-80
2022/03/08 05:42:43;;;;;;;5.10;3.90;;;;;;;-2.61;48.52;102553.56;4969398;28;20120;-79
2022/03/08 05:45:10;;;;;;;5.85;3.70;;;;;;;-2.62;48.43;102546.72;4986067;28;20484;-79
2022/03/08 05:47:37;;;;;;;4.55;3.60;;;;;;;-2.67;48.35;102543.97;4996610;28;20043;-79
2022/03/08 05:50:04;;;;;;;8.48;3.80;;;;;;;-2.69;49.30;102539.59;4983996;28;20034;-79
2022/03/08 05:52:29;;;;;;;5.95;4.20;;;;;;;-2.63;48.82;102543.25;4969836;28;20117;-78
2022/03/08 05:54:55;;;;;;;7.57;3.85;;;;;;;-2.63;48.80;102535.56;4987987;28;20399;-79
2022/03/08 05:57:20;;;;;;;7.40;3.78;;;;;;;-2.58;48.86;102540.91;4968563;28;20043;-79
2022/03/08 05:59:49;;;;;;;7.90;4.05;;;;;;;-2.53;48.38;102546.22;4999373;22;20706;-79
2022/03/08 06:02:17;;;;;;;6.72;3.88;;;;;;;-2.47;48.41;102549.00;4971124;28;20043;-80
2022/03/08 06:04:43;;;;;;;5.63;3.67;;;;;;;-2.51;48.64;102540.34;4973568;28;20565;-79
2022/03/08 06:07:08;;;;;;;6.82;4.25;;;;;;;-2.39;48.27;102549.34;4975119;28;20042;-80
2022/03/08 06:09:34;;;;;;;6.13;4.20;;;;;;;-2.36;48.00;102550.31;4957914;28;20057;-78
2022/03/08 06:12:00;;;;;;;8.00;4.45;;;;;;;-2.34;48.14;102558.94;4970417;28;20035;-80
2022/03/08 06:14:27;;;;;;;7.40;3.88;;;;;;;-2.36;47.91;102552.88;4978731;28;20023;-78
2022/03/08 06:16:52;;;;;;;5.55;4.15;;;;;;;-2.31;48.06;102558.19;4972619;28;20030;-79
2022/03/08 06:19:18;;;;;;;9.30;5.05;;;;;;;-2.20;48.01;102549.28;4978141;28;20054;-78
2022/03/08 06:21:43;;;;;;;8.57;4.35;;;;;;;-2.13;47.63;102547.81;4973746;28;20124;-77
2022/03/08 06:24:11;;;;;;;7.55;4.80;;;;;;;-2.14;47.48;102546.94;4961335;28;20035;-76
2022/03/08 06:26:37;;;;;;;6.45;4.03;;;;;;;-2.08;47.59;102556.56;4976683;28;20833;-79
2022/03/08 06:29:03;;;;;;;10.07;5.25;;;;;;;-2.09;47.68;102558.25;4972071;28;20230;-80
2022/03/08 06:31:28;;;;;;;6.95;4.68;;;;;;;-1.95;47.45;102563.91;4960783;28;20034;-79
2022/03/08 06:33:54;;;;;;;6.07;3.83;;;;;;;-1.98;47.12;102568.91;4962091;28;20218;-79
2022/03/08 06:36:19;;;;;;;5.03;4.32;;;;;;;-1.96;47.10;102568.97;4977346;28;20038;-78
2022/03/08 06:38:45;;;;;;;3.83;3.53;;;;;;;-1.98;46.84;102571.47;4971281;28;20691;-77
2022/03/08 06:41:10;;;;;;;8.02;5.20;;;;;;;-1.89;47.24;102571.84;4980101;28;20550;-79
2022/03/08 06:43:36;;;;;;;6.75;4.82;;;;;;;-1.83;47.02;102569.50;4964175;28;20419;-79
2022/03/08 06:46:02;;;;;;;7.85;4.45;;;;;;;-1.74;46.86;102571.53;4981560;28;20061;-80
2022/03/08 06:48:28;;;;;;;9.45;4.68;;;;;;;-1.75;46.85;102566.38;4964036;28;20049;-79
2022/03/08 06:50:53;;;;;;;7.25;4.60;;;;;;;-1.72;46.91;102566.50;4979572;28;20125;-77
2022/03/08 06:53:19;;;;;;;6.82;4.53;;;;;;;-1.66;47.18;102567.59;4977578;28;20391;-78
2022/03/08 06:55:44;;;;;;;8.85;5.18;;;;;;;-1.14;46.78;102568.63;4987120;28;20535;-79
2022/03/08 06:58:09;;;;;;;9.35;5.28;;;;;;;0.89;44.79;102565.66;4965859;28;20035;-79
2022/03/08 07:00:35;;;;;;;7.53;4.65;;;;;;;3.47;39.33;102564.50;4966516;28;20296;-80
2022/03/08 07:03:01;;;;;;;10.55;4.10;;;;;;;5.65;36.42;102557.69;4982110;28;20406;-76
2022/03/08 07:05:26;;;;;;;7.22;3.97;;;;;;;7.53;30.16;102551.47;4982988;28;20026;-78
2022/03/08 07:07:52;;;;;;;6.90;4.15;;;;;;;8.59;29.28;102554.72;5005647;28;20035;-80
2022/03/08 07:10:17;;;;;;;6.22;4.03;;;;;;;9.40;27.20;102552.44;4992670;28;20362;-78
2022/03/08 07:12:43;;;;;;;4.80;3.88;;;;;;;9.93;26.65;102542.41;4963264;28;20122;-77
2022/03/08 07:15:09;;;;;;;5.85;3.78;;;;;;;10.17;25.76;102545.66;4984499;28;20027;-80
2022/03/08 07:17:35;;;;;;;8.27;4.40;;;;;;;10.49;24.55;102547.00;4962951;28;20038;-78
2022/03/08 07:20:01;;;;;;;4.13;3.00;;;;;;;11.69;22.53;102543.41;4965920;28;20042;-77
2022/03/08 07:22:26;;;;;;;5.07;3.65;;;;;;;11.34;23.20;102551.88;4963461;28;20035;-77
2022/03/08 07:24:54;;;;;;;7.15;3.58;;;;;;;11.00;23.02;102549.78;4966228;28;20622;-78
2022/03/08 07:27:19;;;;;;;7.60;3.80;;;;;;;11.36;22.61;102556.19;4958044;28;20050;-78
2022/03/08 07:29:46;;;;;;;5.30;3.42;;;;;;;11.21;22.56;102544.22;4980394;28;20165;-78
2022/03/08 07:32:12;;;;;;;6.18;4.20;;;;;;;10.86;23.54;102547.38;4979529;28;20030;-78
2022/03/08 07:34:37;;;;;;;13.30;4.80;;;;;;;11.16;23.38;102555.66;4961664;28;20019;-75
2022/03/08 07:37:03;;;;;;;6.72;4.35;;;;;;;11.25;22.80;102552.88;4969759;28;20030;-78
2022/03/08 07:39:28;;;;;;;5.00;3.72;;;;;;;10.61;23.77;102546.81;4975932;28;20030;-79
2022/03/08 07:41:54;;;;;;;7.20;4.22;;;;;;;10.72;23.84;102544.06;4965504;28;20034;-79
2022/03/08 07:44:22;;;;;;;8.57;3.78;;;;;;;11.96;21.97;102549.06;4974137;28;20086;-79
2022/03/08 07:46:48;;;;;;;4.82;3.88;;;;;;;12.37;21.05;102549.97;4981496;28;20050;-78
2022/03/08 07:49:13;;;;;;;7.35;4.35;;;;;;;12.38;21.59;102546.44;4962805;28;20039;-79
2022/03/08 07:51:39;;;;;;;10.77;5.80;;;;;;;12.34;21.64;102550.91;4981189;28;20042;-75
2022/03/08 07:54:04;;;;;;;6.40;4.22;;;;;;;12.15;22.27;102563.50;4975901;28;20081;-77
2022/03/08 07:56:30;;;;;;;6.45;3.88;;;;;;;11.66;22.45;102553.94;4959329;28;20756;-78
2022/03/08 07:58:56;;;;;;;6.25;3.88;;;;;;;12.19;21.77;102562.56;4958855;28;20456;-77
2022/03/08 08:01:21;;;;;;;7.07;4.55;;;;;;;12.51;21.63;102558.41;4980973;28;20669;-78
2022/03/08 08:03:47;;;;;;;6.85;4.53;;;;;;;12.49;21.89;102561.09;4959120;28;20268;-79
2022/03/08 08:06:12;;;;;;;5.00;4.38;;;;;;;12.36;22.20;102564.00;4979864;28;20125;-78
2022/03/08 08:08:38;;;;;;;6.45;3.80;;;;;;;12.54;22.40;102558.34;4958406;28;20047;-78
2022/03/08 08:11:03;;;;;;;7.03;4.80;;;;;;;12.33;22.22;102558.81;4979292;28;20208;-79
2022/03/08 08:13:29;;;;;;;7.32;4.38;;;;;;;12.88;21.92;102563.75;4977320;28;20053;-79
2022/03/08 08:15:55;;;;;;;8.10;5.00;;;;;;;13.17;21.99;102559.56;4979986;28;20521;-78
2022/03/08 08:18:21;;;;;;;9.05;4.55;;;;;;;13.04;21.26;102561.63;4982128;28;20124;-77
2022/03/08 08:20:47;;;;;;;10.02;4.60;;;;;;;13.40;20.94;102560.78;4985318;28;20385;-79
2022/03/08 08:23:12;;;;;;;9.90;4.90;;;;;;;13.62;20.56;102555.88;4980922;28;20074;-78
2022/03/08 08:25:38;;;;;;;10.00;4.60;;;;;;;13.48;20.46;102557.03;4958344;28;20135;-80
2022/03/08 08:28:06;;;;;;;8.93;5.28;;;;;;;13.03;21.52;102552.03;4973406;28;20046;-80
2022/03/08 08:30:32;;;;;;;8.07;3.97;;;;;;;12.96;21.31;102560.97;4975229;28;20039;-82
2022/03/08 08:32:57;;;;;;;8.75;3.97;;;;;;;13.06;21.30;102551.94;4975225;28;20042;-78
2022/03/08 08:35:23;;;;;;;7.95;4.22;;;;;;;13.17;20.95;102551.69;4957739;28;20054;-78
2022/03/08 08:37:49;;;;;;;8.35;4.70;;;;;;;13.38;21.39;102552.06;4972257;28;20046;-79
2022/03/08 08:40:14;;;;;;;8.57;5.03;;;;;;;13.41;21.79;102542.34;4980918;28;20030;-80
2022/03/08 08:42:40;;;;;;;9.10;4.72;;;;;;;13.83;21.33;102544.78;4975792;28;20537;-79
2022/03/08 08:45:06;;;;;;;7.25;4.25;;;;;;;13.39;20.78;102538.91;4960436;28;20547;-79
2022/03/08 08:47:32;;;;;;;9.40;4.45;;;;;;;13.89;20.79;102535.84;4972996;28;20046;-79
2022/03/08 08:49:58;;;;;;;12.57;4.78;;;;;;;13.55;21.45;102539.38;4962532;28;20424;-78
2022/03/08 08:52:23;;;;;;;9.23;4.40;;;;;;;13.44;21.85;102534.38;4970900;28;20152;-80
2022/03/08 08:54:49;;;;;;;6.82;3.97;;;;;;;12.88;21.50;102540.13;4978098;28;20654;-81
2022/03/08 08:57:15;;;;;;;9.65;4.70;;;;;;;12.57;21.88;102529.44;4958593;28;20038;-78
2022/03/08 08:59:40;;;;;;;9.15;3.88;;;;;;;12.69;22.55;102538.81;4956255;28;20026;-78
2022/03/08 09:02:07;;;;;;;10.45;4.95;;;;;;;12.14;22.53;102535.59;4957468;28;20447;-77
2022/03/08 09:04:34;;;;;;;9.18;5.15;;;;;;;12.47;22.51;102526.16;4974449;28;20852;-77
2022/03/08 09:07:00;;;;;;;11.32;4.60;;;;;;;11.74;23.31;102538.09;4961428;28;20046;-81
2022/03/08 09:09:25;;;;;;;7.35;4.32;;;;;;;10.75;24.06;102529.19;4962412;28;20026;-80
2022/03/08 09:11:51;;;;;;;9.98;4.88;;;;;;;10.25;24.73;102532.47;4961545;28;20037;-81
2022/03/08 09:14:17;;;;;;;9.55;4.15;;;;;;;9.85;25.61;102522.47;4985149;28;20042;-79
2022/03/08 09:16:42;;;;;;;7.05;4.75;;;;;;;9.50;25.97;102526.25;4964519;28;20076;-79
2022/03/08 09:19:09;;;;;;;9.48;4.75;;;;;;;9.30;26.74;102537.75;4955936;28;20291;-79
2022/03/08 09:21:34;;;;;;;12.20;5.45;;;;;;;9.83;26.36;102525.09;4977465;28;20459;-79
2022/03/08 09:24:00;;;;;;;7.68;4.35;;;;;;;10.01;26.18;102521.41;4958445;28;20027;-79
2022/03/08 09:26:25;;;;;;;9.07;4.85;;;;;;;9.76;25.86;102529.47;4977060;28;20294;-80
2022/03/08 09:28:51;;;;;;;8.73;5.25;;;;;;;9.53;26.71;102528.88;4971227;28;20133;-80
2022/03/08 09:31:16;;;;;;;6.68;3.88;;;;;;;9.82;26.22;102522.53;4956094;28;20038;-78
2022/03/08 09:33:42;;;;;;;7.88;4.15;;;;;;;9.58;25.81;102529.66;4956044;28;20514;-79
2022/03/08 09:36:09;;;;;;;7.63;4.30;;;;;;;9.93;26.03;102524.13;4953858;28;20046;-80
2022/03/08 09:38:34;;;;;;;5.43;3.63;;;;;;;10.24;26.21;102523.78;4971232;28;20042;-78
2022/03/08 09:41:02;;;;;;;8.25;4.40;;;;;;;9.88;25.50;102517.22;4971540;28;20040;-78
2022/03/08 09:43:29;;;;;;;6.80;4.55;;;;;;;10.14;25.30;102519.53;4954438;28;20046;-80
2022/03/08 09:45:55;;;;;;;6.95;4.40;;;;;;;10.20;25.07;102512.50;4972684;28;20039;-79
2022/03/08 09:48:21;;;;;;;7.95;4.32;;;;;;;10.34;24.75;102514.06;4963143;28;20343;-79
2022/03/08 09:50:46;;;;;;;7.13;4.22;;;;;;;10.22;25.55;102513.34;4981546;28;20045;-81
2022/03/08 09:53:12;;;;;;;4.78;3.45;;;;;;;10.16;24.74;102504.72;4965072;28;20047;-79
2022/03/08 09:55:38;;;;;;;6.35;3.40;;;;;;;10.26;24.96;102508.94;4984358;28;20026;-78
2022/03/08 09:58:05;;;;;;;5.25;3.17;;;;;;;10.12;25.26;102506.47;4964515;28;20042;-76
2022/03/08 10:00:32;;;;;;;7.47;3.85;;;;;;;9.95;25.90;102513.69;4981756;28;20034;-79
2022/03/08 10:02:59;;;;;;;4.93;3.13;;;;;;;10.04;24.93;102508.34;4979387;28;21645;-79
2022/03/08 10:05:33;;;;;;;5.68;3.42;;;;;;;10.10;25.77;102502.16;4968425;28;20488;-80
2022/03/08 10:08:08;;;;;;;6.45;2.88;;;;;;;9.96;25.41;102499.72;4977633;28;20112;-80
2022/03/08 10:10:53;;;;;;;8.98;4.38;;;;;;;10.06;25.38;102495.25;4965280;28;20034;-80
2022/03/08 10:13:21;;;;;;;5.90;3.28;;;;;;;10.48;24.98;102492.97;4969932;28;20047;-78
2022/03/08 10:16:05;;;;;;;4.70;2.83;;;;;;;10.46;24.47;102490.38;4979757;28;20045;-79
2022/03/08 10:18:35;;;;;;;5.05;2.90;;;;;;;9.97;25.28;102488.41;4976100;28;20045;-77
2022/03/08 10:21:01;;;;;;;5.15;3.45;;;;;;;9.98;25.64;102492.72;4969788;28;20038;-78
2022/03/08 10:23:27;;;;;;;5.50;3.10;;;;;;;10.37;25.22;102487.88;4963103;28;20053;-80
2022/03/08 10:25:52;;;;;;;7.40;3.92;;;;;;;10.55;24.98;102489.41;4992114;28;20388;-80
2022/03/08 10:28:18;;;;;;;6.53;3.05;;;;;;;10.76;24.13;102486.44;4958643;28;20054;-80
2022/03/08 10:30:43;;;;;;;4.38;2.60;;;;;;;10.50;23.91;102476.38;4964346;28;20034;-78
2022/03/08 10:33:09;;;;;;;6.25;3.67;;;;;;;11.16;23.37;102471.91;4966089;28;20070;-77
2022/03/08 10:35:41;;;;;;;6.68;2.97;;;;;;;10.52;24.14;102474.59;4960540;28;20037;-78
2022/03/08 10:38:08;;;;;;;5.57;2.72;;;;;;;10.71;24.06;102463.88;4959478;28;20129;-78
2022/03/08 10:40:35;;;;;;;4.20;2.38;;;;;;;10.87;23.63;102468.00;4980991;28;20037;-79
2022/03/08 10:43:16;;;;;;;6.93;2.63;;;;;;;10.99;24.84;102466.94;4967878;28;20106;-75
2022/03/08 10:45:44;;;;;;;5.10;2.85;;;;;;;10.77;22.97;102463.78;4980606;28;20057;-80
2022/03/08 10:48:14;;;;;;;5.57;2.78;;;;;;;9.56;23.92;102453.13;4974876;28;20042;-79
2022/03/08 10:50:42;;;;;;;4.95;2.70;;;;;;;10.69;23.85;102457.81;4959779;28;20580;-78
2022/03/08 10:53:08;;;;;;;9.05;2.70;;;;;;;10.97;23.43;102456.53;4974998;28;20042;-79
2022/03/08 10:55:36;;;;;;;3.75;1.88;;;;;;;10.99;22.49;102444.25;4976452;28;20027;-79
2022/03/08 10:58:08;;;;;;;5.80;2.30;;;;;;;11.82;22.34;102436.66;4984314;28;20047;-78
2022/03/08 11:00:45;;;;;;;4.90;2.70;;;;;;;11.84;22.17;102445.34;4963933;28;20518;-78
2022/03/08 11:03:22;;;;;;;3.38;2.20;;;;;;;11.33;22.76;102437.56;4977058;28;20100;-79
2022/03/08 11:05:53;;;;;;;9.50;3.15;;;;;;;11.22;23.31;102445.63;4990061;28;20382;-77
2022/03/08 11:08:20;;;;;;;5.25;2.85;;;;;;;10.72;23.05;102434.22;4973450;28;20082;-82
2022/03/08 11:10:47;;;;;;;3.85;2.65;;;;;;;10.54;23.05;102433.59;4959007;28;20516;-78
2022/03/08 11:13:15;;;;;;;4.40;2.15;;;;;;;10.55;22.62;102440.59;4982041;28;20496;-80
2022/03/08 11:15:43;;;;;;;4.85;2.13;;;;;;;10.59;23.02;102438.75;4962660;28;20476;-78
2022/03/08 11:18:11;;;;;;;3.88;1.77;;;;;;;10.46;23.33;102430.28;4963693;28;20175;-76
2022/03/08 11:20:39;;;;;;;7.30;2.15;;;;;;;10.51;22.20;102432.81;4961000;28;20054;-77
2022/03/08 11:23:06;;;;;;;4.22;2.05;;;;;;;10.66;23.33;102429.97;4964662;28;20097;-80